sensor_id;sensor_type;location;lat;lon;timestamp;P1;durP1;ratioP1;P2;durP2;ratioP2
45909;SDS011;31622;55.416;37.840;2022-12-24T00:01:48;2.35;;;1.83;;
45909;SDS011;31622;55.416;37.840;2022-12-24T00:04:14;2.83;;;2.10;;
45909;SDS011;31622;55.416;37.840;2022-12-24T00:06:39;2.63;;;1.98;;
45909;SDS011;31622;55.416;37.840;2022-12-24T00:09:05;2.30;;;1.90;;
45909;SDS011;31622;55.416;37.840;2022-12-24T00:11:31;2.50;;;1.90;;
45909;SDS011;31622;55.416;37.840;2022-12-24T00:13:56;3.22;;;2.15;;
45909;SDS011;31622;55.416;37.840;2022-12-24T00:16:22;3.22;;;2.15;;
45909;SDS011;31622;55.416;37.840;2022-12-24T00:18:48;3.13;;;2.20;;
45909;SDS011;31622;55.416;37.840;2022-12-24T00:21:14;2.35;;;1.65;;
45909;SDS011;31622;55.416;37.840;2022-12-24T00:23:40;3.28;;;2.20;;
45909;SDS011;31622;55.416;37.840;2022-12-24T00:26:05;3.05;;;2.05;;
45909;SDS011;31622;55.416;37.840;2022-12-24T00:28:31;2.42;;;1.75;;
45909;SDS011;31622;55.416;37.840;2022-12-24T00:30:57;3.05;;;2.17;;
45909;SDS011;31622;55.416;37.840;2022-12-24T00:33:22;3.22;;;1.95;;
45909;SDS011;31622;55.416;37.840;2022-12-24T00:35:49;2.95;;;1.88;;
45909;SDS011;31622;55.416;37.840;2022-12-24T00:38:15;2.47;;;1.85;;
45909;SDS011;31622;55.416;37.840;2022-12-24T00:40:41;2.80;;;2.00;;
45909;SDS011;31622;55.416;37.840;2022-12-24T00:43:06;2.65;;;1.85;;
45909;SDS011;31622;55.416;37.840;2022-12-24T00:45:32;2.53;;;1.95;;
45909;SDS011;31622;55.416;37.840;2022-12-24T00:47:58;2.38;;;1.80;;
45909;SDS011;31622;55.416;37.840;2022-12-24T00:50:23;3.55;;;2.05;;
45909;SDS011;31622;55.416;37.840;2022-12-24T00:52:49;2.63;;;1.77;;
45909;SDS011;31622;55.416;37.840;2022-12-24T00:55:15;2.22;;;1.65;;
45909;SDS011;31622;55.416;37.840;2022-12-24T00:57:40;2.15;;;1.60;;
45909;SDS011;31622;55.416;37.840;2022-12-24T01:00:06;2.53;;;1.60;;
45909;SDS011;31622;55.416;37.840;2022-12-24T01:02:33;2.80;;;2.03;;
45909;SDS011;31622;55.416;37.840;2022-12-24T01:04:58;2.17;;;1.63;;
45909;SDS011;31622;55.416;37.840;2022-12-24T01:07:37;2.28;;;1.70;;
45909;SDS011;31622;55.416;37.840;2022-12-24T01:10:05;2.97;;;1.98;;
45909;SDS011;31622;55.416;37.840;2022-12-24T01:12:31;2.50;;;1.75;;
45909;SDS011;31622;55.416;37.840;2022-12-24T01:14:57;2.60;;;1.88;;
45909;SDS011;31622;55.416;37.840;2022-12-24T01:17:23;2.63;;;1.70;;
45909;SDS011;31622;55.416;37.840;2022-12-24T01:19:48;3.42;;;1.88;;
45909;SDS011;31622;55.416;37.840;2022-12-24T01:22:14;2.60;;;1.70;;
45909;SDS011;31622;55.416;37.840;2022-12-24T01:24:40;2.40;;;1.88;;
45909;SDS011;31622;55.416;37.840;2022-12-24T01:27:06;2.35;;;1.50;;
45909;SDS011;31622;55.416;37.840;2022-12-24T01:29:32;2.55;;;1.70;;
45909;SDS011;31622;55.416;37.840;2022-12-24T01:31:58;2.70;;;1.83;;
45909;SDS011;31622;55.416;37.840;2022-12-24T01:34:23;2.40;;;1.70;;
45909;SDS011;31622;55.416;37.840;2022-12-24T01:36:49;2.75;;;1.98;;
45909;SDS011;31622;55.416;37.840;2022-12-24T01:39:15;2.10;;;1.60;;
45909;SDS011;31622;55.416;37.840;2022-12-24T01:41:40;2.42;;;1.60;;
45909;SDS011;31622;55.416;37.840;2022-12-24T01:44:26;2.58;;;1.58;;
45909;SDS011;31622;55.416;37.840;2022-12-24T01:46:58;2.00;;;1.60;;
45909;SDS011;31622;55.416;37.840;2022-12-24T01:49:36;2.53;;;1.88;;
45909;SDS011;31622;55.416;37.840;2022-12-24T01:52:05;2.10;;;1.60;;
45909;SDS011;31622;55.416;37.840;2022-12-24T01:54:35;2.05;;;1.58;;
45909;SDS011;31622;55.416;37.840;2022-12-24T01:57:10;2.33;;;1.60;;
45909;SDS011;31622;55.416;37.840;2022-12-24T01:59:40;2.65;;;1.80;;
45909;SDS011;31622;55.416;37.840;2022-12-24T02:02:08;2.38;;;1.60;;
45909;SDS011;31622;55.416;37.840;2022-12-24T02:07:18;2.17;;;1.67;;
45909;SDS011;31622;55.416;37.840;2022-12-24T02:09:43;2.63;;;1.67;;
45909;SDS011;31622;55.416;37.840;2022-12-24T02:12:09;2.35;;;1.67;;
45909;SDS011;31622;55.416;37.840;2022-12-24T02:14:35;3.38;;;1.70;;
45909;SDS011;31622;55.416;37.840;2022-12-24T02:27:56;2.40;;;1.77;;
45909;SDS011;31622;55.416;37.840;2022-12-24T02:33:10;3.03;;;1.70;;
45909;SDS011;31622;55.416;37.840;2022-12-24T02:41:15;3.20;;;2.00;;
45909;SDS011;31622;55.416;37.840;2022-12-24T02:43:44;3.00;;;2.03;;
45909;SDS011;31622;55.416;37.840;2022-12-24T02:46:12;3.03;;;2.13;;
45909;SDS011;31622;55.416;37.840;2022-12-24T02:48:49;2.70;;;2.05;;
45909;SDS011;31622;55.416;37.840;2022-12-24T02:51:15;3.63;;;2.10;;
45909;SDS011;31622;55.416;37.840;2022-12-24T02:53:41;3.78;;;2.25;;
45909;SDS011;31622;55.416;37.840;2022-12-24T02:56:18;2.80;;;2.08;;
45909;SDS011;31622;55.416;37.840;2022-12-24T03:02:08;3.47;;;2.50;;
45909;SDS011;31622;55.416;37.840;2022-12-24T03:05:09;7.27;;;2.20;;
45909;SDS011;31622;55.416;37.840;2022-12-24T03:13:14;4.63;;;2.60;;
45909;SDS011;31622;55.416;37.840;2022-12-24T03:15:41;2.95;;;1.77;;
45909;SDS011;31622;55.416;37.840;2022-12-24T03:18:08;3.78;;;2.20;;
45909;SDS011;31622;55.416;37.840;2022-12-24T03:20:43;2.67;;;2.10;;
45909;SDS011;31622;55.416;37.840;2022-12-24T03:23:10;4.35;;;1.98;;
45909;SDS011;31622;55.416;37.840;2022-12-24T03:25:37;2.78;;;2.08;;
45909;SDS011;31622;55.416;37.840;2022-12-24T03:28:05;3.03;;;1.92;;
45909;SDS011;31622;55.416;37.840;2022-12-24T03:30:31;5.20;;;2.20;;
45909;SDS011;31622;55.416;37.840;2022-12-24T03:32:57;3.17;;;2.25;;
45909;SDS011;31622;55.416;37.840;2022-12-24T03:35:23;3.30;;;2.28;;
45909;SDS011;31622;55.416;37.840;2022-12-24T03:37:49;3.35;;;2.28;;
45909;SDS011;31622;55.416;37.840;2022-12-24T03:40:15;3.60;;;2.63;;
45909;SDS011;31622;55.416;37.840;2022-12-24T03:42:41;3.83;;;2.47;;
45909;SDS011;31622;55.416;37.840;2022-12-24T03:45:07;4.05;;;2.50;;
45909;SDS011;31622;55.416;37.840;2022-12-24T03:47:33;5.18;;;2.80;;
45909;SDS011;31622;55.416;37.840;2022-12-24T03:49:59;5.00;;;2.50;;
45909;SDS011;31622;55.416;37.840;2022-12-24T03:52:25;5.25;;;2.80;;
45909;SDS011;31622;55.416;37.840;2022-12-24T03:54:51;5.75;;;2.95;;
45909;SDS011;31622;55.416;37.840;2022-12-24T03:57:16;6.63;;;3.00;;
45909;SDS011;31622;55.416;37.840;2022-12-24T03:59:42;5.38;;;3.00;;
45909;SDS011;31622;55.416;37.840;2022-12-24T04:02:08;5.68;;;3.10;;
45909;SDS011;31622;55.416;37.840;2022-12-24T04:04:34;4.25;;;2.60;;
45909;SDS011;31622;55.416;37.840;2022-12-24T04:07:02;4.43;;;2.90;;
45909;SDS011;31622;55.416;37.840;2022-12-24T04:09:28;4.15;;;2.78;;
45909;SDS011;31622;55.416;37.840;2022-12-24T04:11:54;3.65;;;2.67;;
45909;SDS011;31622;55.416;37.840;2022-12-24T04:14:20;5.47;;;2.90;;
45909;SDS011;31622;55.416;37.840;2022-12-24T04:16:45;5.43;;;3.10;;
45909;SDS011;31622;55.416;37.840;2022-12-24T04:19:11;4.40;;;2.83;;
45909;SDS011;31622;55.416;37.840;2022-12-24T04:21:37;5.05;;;3.08;;
45909;SDS011;31622;55.416;37.840;2022-12-24T04:24:02;3.90;;;2.47;;
45909;SDS011;31622;55.416;37.840;2022-12-24T04:26:28;3.55;;;2.55;;
45909;SDS011;31622;55.416;37.840;2022-12-24T04:28:54;7.50;;;2.83;;
45909;SDS011;31622;55.416;37.840;2022-12-24T04:31:20;4.43;;;2.90;;
45909;SDS011;31622;55.416;37.840;2022-12-24T04:33:45;5.35;;;2.95;;
45909;SDS011;31622;55.416;37.840;2022-12-24T04:36:12;4.93;;;2.92;;
45909;SDS011;31622;55.416;37.840;2022-12-24T04:38:41;6.93;;;2.88;;
45909;SDS011;31622;55.416;37.840;2022-12-24T04:41:09;6.13;;;3.53;;
45909;SDS011;31622;55.416;37.840;2022-12-24T04:48:31;5.35;;;3.17;;
45909;SDS011;31622;55.416;37.840;2022-12-24T04:50:59;6.00;;;3.40;;
45909;SDS011;31622;55.416;37.840;2022-12-24T04:53:25;5.10;;;3.20;;
45909;SDS011;31622;55.416;37.840;2022-12-24T04:55:51;5.57;;;3.35;;
45909;SDS011;31622;55.416;37.840;2022-12-24T04:58:16;4.78;;;3.30;;
45909;SDS011;31622;55.416;37.840;2022-12-24T05:00:43;5.25;;;3.63;;
45909;SDS011;31622;55.416;37.840;2022-12-24T05:03:09;5.60;;;3.45;;
45909;SDS011;31622;55.416;37.840;2022-12-24T05:05:35;6.93;;;4.05;;
45909;SDS011;31622;55.416;37.840;2022-12-24T05:08:00;6.60;;;3.83;;
45909;SDS011;31622;55.416;37.840;2022-12-24T05:10:26;8.60;;;4.10;;
45909;SDS011;31622;55.416;37.840;2022-12-24T05:12:52;9.68;;;5.18;;
45909;SDS011;31622;55.416;37.840;2022-12-24T05:15:17;8.63;;;5.20;;
45909;SDS011;31622;55.416;37.840;2022-12-24T05:17:43;9.05;;;5.03;;
45909;SDS011;31622;55.416;37.840;2022-12-24T05:20:09;9.30;;;5.30;;
45909;SDS011;31622;55.416;37.840;2022-12-24T05:22:35;11.70;;;5.78;;
45909;SDS011;31622;55.416;37.840;2022-12-24T05:25:19;9.30;;;5.57;;
45909;SDS011;31622;55.416;37.840;2022-12-24T05:28:02;13.02;;;5.43;;
45909;SDS011;31622;55.416;37.840;2022-12-24T05:30:28;8.38;;;4.90;;
45909;SDS011;31622;55.416;37.840;2022-12-24T05:32:54;7.50;;;4.47;;
45909;SDS011;31622;55.416;37.840;2022-12-24T05:35:20;9.85;;;4.80;;
45909;SDS011;31622;55.416;37.840;2022-12-24T05:37:45;10.13;;;4.80;;
45909;SDS011;31622;55.416;37.840;2022-12-24T05:40:11;10.00;;;5.28;;
45909;SDS011;31622;55.416;37.840;2022-12-24T05:42:37;11.82;;;5.10;;
45909;SDS011;31622;55.416;37.840;2022-12-24T05:45:03;8.57;;;5.30;;
45909;SDS011;31622;55.416;37.840;2022-12-24T05:47:28;9.25;;;5.00;;
45909;SDS011;31622;55.416;37.840;2022-12-24T05:49:54;7.55;;;5.13;;
45909;SDS011;31622;55.416;37.840;2022-12-24T05:52:20;7.72;;;4.60;;
45909;SDS011;31622;55.416;37.840;2022-12-24T05:54:45;7.35;;;5.05;;
45909;SDS011;31622;55.416;37.840;2022-12-24T05:57:11;7.45;;;4.78;;
45909;SDS011;31622;55.416;37.840;2022-12-24T05:59:37;5.75;;;4.10;;
45909;SDS011;31622;55.416;37.840;2022-12-24T06:02:03;11.07;;;4.82;;
45909;SDS011;31622;55.416;37.840;2022-12-24T06:04:28;8.48;;;4.50;;
45909;SDS011;31622;55.416;37.840;2022-12-24T06:06:54;5.22;;;3.90;;
45909;SDS011;31622;55.416;37.840;2022-12-24T06:09:20;6.47;;;4.50;;
45909;SDS011;31622;55.416;37.840;2022-12-24T06:11:45;7.60;;;4.68;;
45909;SDS011;31622;55.416;37.840;2022-12-24T06:14:11;7.05;;;4.13;;
45909;SDS011;31622;55.416;37.840;2022-12-24T06:16:37;7.35;;;4.78;;
45909;SDS011;31622;55.416;37.840;2022-12-24T06:19:02;9.75;;;4.75;;
45909;SDS011;31622;55.416;37.840;2022-12-24T06:21:28;10.25;;;4.97;;
45909;SDS011;31622;55.416;37.840;2022-12-24T06:23:54;9.70;;;5.40;;
45909;SDS011;31622;55.416;37.840;2022-12-24T06:26:20;9.90;;;5.10;;
45909;SDS011;31622;55.416;37.840;2022-12-24T06:28:47;10.18;;;4.95;;
45909;SDS011;31622;55.416;37.840;2022-12-24T06:31:15;8.50;;;4.60;;
45909;SDS011;31622;55.416;37.840;2022-12-24T06:33:42;10.15;;;5.10;;
45909;SDS011;31622;55.416;37.840;2022-12-24T06:36:08;8.57;;;4.97;;
45909;SDS011;31622;55.416;37.840;2022-12-24T06:38:35;6.60;;;4.90;;
45909;SDS011;31622;55.416;37.840;2022-12-24T06:41:04;7.07;;;4.60;;
45909;SDS011;31622;55.416;37.840;2022-12-24T06:43:30;6.35;;;4.00;;
45909;SDS011;31622;55.416;37.840;2022-12-24T06:45:59;7.13;;;4.40;;
45909;SDS011;31622;55.416;37.840;2022-12-24T06:48:25;7.55;;;4.32;;
45909;SDS011;31622;55.416;37.840;2022-12-24T06:50:51;6.97;;;4.30;;
45909;SDS011;31622;55.416;37.840;2022-12-24T06:53:17;5.55;;;3.92;;
45909;SDS011;31622;55.416;37.840;2022-12-24T06:55:42;6.18;;;3.72;;
45909;SDS011;31622;55.416;37.840;2022-12-24T06:58:08;4.75;;;3.55;;
45909;SDS011;31622;55.416;37.840;2022-12-24T07:00:34;4.95;;;3.58;;
45909;SDS011;31622;55.416;37.840;2022-12-24T07:03:00;5.90;;;3.50;;
45909;SDS011;31622;55.416;37.840;2022-12-24T07:05:26;4.72;;;3.30;;
45909;SDS011;31622;55.416;37.840;2022-12-24T07:07:51;4.45;;;3.22;;
45909;SDS011;31622;55.416;37.840;2022-12-24T07:10:18;6.30;;;3.63;;
45909;SDS011;31622;55.416;37.840;2022-12-24T07:12:44;5.18;;;3.42;;
45909;SDS011;31622;55.416;37.840;2022-12-24T07:15:10;6.47;;;3.30;;
45909;SDS011;31622;55.416;37.840;2022-12-24T07:17:36;7.55;;;3.75;;
45909;SDS011;31622;55.416;37.840;2022-12-24T07:20:03;5.90;;;3.58;;
45909;SDS011;31622;55.416;37.840;2022-12-24T07:22:30;4.57;;;3.67;;
45909;SDS011;31622;55.416;37.840;2022-12-24T07:24:55;5.63;;;3.42;;
45909;SDS011;31622;55.416;37.840;2022-12-24T07:27:21;4.55;;;3.30;;
45909;SDS011;31622;55.416;37.840;2022-12-24T07:29:46;5.38;;;3.33;;
45909;SDS011;31622;55.416;37.840;2022-12-24T07:32:12;9.05;;;3.80;;
45909;SDS011;31622;55.416;37.840;2022-12-24T07:34:38;6.03;;;2.92;;
45909;SDS011;31622;55.416;37.840;2022-12-24T07:37:04;6.88;;;3.15;;
45909;SDS011;31622;55.416;37.840;2022-12-24T07:39:31;6.07;;;3.33;;
45909;SDS011;31622;55.416;37.840;2022-12-24T07:41:56;10.60;;;3.63;;
45909;SDS011;31622;55.416;37.840;2022-12-24T07:44:23;4.82;;;2.90;;
45909;SDS011;31622;55.416;37.840;2022-12-24T07:46:49;7.03;;;3.15;;
45909;SDS011;31622;55.416;37.840;2022-12-24T07:49:15;6.47;;;3.13;;
45909;SDS011;31622;55.416;37.840;2022-12-24T07:51:41;5.20;;;3.58;;
45909;SDS011;31622;55.416;37.840;2022-12-24T07:54:06;11.05;;;3.88;;
45909;SDS011;31622;55.416;37.840;2022-12-24T07:56:32;7.95;;;3.50;;
45909;SDS011;31622;55.416;37.840;2022-12-24T07:58:58;10.98;;;3.50;;
45909;SDS011;31622;55.416;37.840;2022-12-24T08:01:24;17.75;;;4.45;;
45909;SDS011;31622;55.416;37.840;2022-12-24T08:03:50;6.40;;;3.40;;
45909;SDS011;31622;55.416;37.840;2022-12-24T08:06:19;5.60;;;3.33;;
45909;SDS011;31622;55.416;37.840;2022-12-24T08:08:45;5.70;;;3.20;;
45909;SDS011;31622;55.416;37.840;2022-12-24T08:11:11;5.22;;;3.00;;
45909;SDS011;31622;55.416;37.840;2022-12-24T08:13:36;6.88;;;3.17;;
45909;SDS011;31622;55.416;37.840;2022-12-24T08:16:02;6.90;;;3.20;;
45909;SDS011;31622;55.416;37.840;2022-12-24T08:18:28;5.63;;;3.30;;
45909;SDS011;31622;55.416;37.840;2022-12-24T08:20:54;4.43;;;3.00;;
45909;SDS011;31622;55.416;37.840;2022-12-24T08:23:20;4.82;;;3.25;;
45909;SDS011;31622;55.416;37.840;2022-12-24T08:25:46;5.55;;;2.97;;
45909;SDS011;31622;55.416;37.840;2022-12-24T08:28:13;4.68;;;2.83;;
45909;SDS011;31622;55.416;37.840;2022-12-24T08:30:40;4.45;;;2.97;;
45909;SDS011;31622;55.416;37.840;2022-12-24T08:33:06;5.68;;;2.83;;
45909;SDS011;31622;55.416;37.840;2022-12-24T08:35:32;4.05;;;2.80;;
45909;SDS011;31622;55.416;37.840;2022-12-24T08:37:57;5.82;;;3.30;;
45909;SDS011;31622;55.416;37.840;2022-12-24T08:40:23;4.82;;;3.05;;
45909;SDS011;31622;55.416;37.840;2022-12-24T08:42:49;4.75;;;2.53;;
45909;SDS011;31622;55.416;37.840;2022-12-24T08:45:15;4.80;;;3.38;;
45909;SDS011;31622;55.416;37.840;2022-12-24T08:47:41;5.25;;;3.03;;
45909;SDS011;31622;55.416;37.840;2022-12-24T08:50:07;6.40;;;3.78;;
45909;SDS011;31622;55.416;37.840;2022-12-24T08:52:34;6.22;;;2.70;;
45909;SDS011;31622;55.416;37.840;2022-12-24T08:54:59;5.10;;;3.30;;
45909;SDS011;31622;55.416;37.840;2022-12-24T08:57:25;4.53;;;2.95;;
45909;SDS011;31622;55.416;37.840;2022-12-24T08:59:51;4.30;;;3.05;;
45909;SDS011;31622;55.416;37.840;2022-12-24T09:02:16;4.53;;;2.90;;
45909;SDS011;31622;55.416;37.840;2022-12-24T09:04:42;4.63;;;3.10;;
45909;SDS011;31622;55.416;37.840;2022-12-24T09:07:08;3.92;;;2.63;;
45909;SDS011;31622;55.416;37.840;2022-12-24T09:09:35;5.25;;;3.20;;
45909;SDS011;31622;55.416;37.840;2022-12-24T09:12:00;5.63;;;3.08;;
45909;SDS011;31622;55.416;37.840;2022-12-24T09:14:28;4.43;;;2.60;;
45909;SDS011;31622;55.416;37.840;2022-12-24T09:16:54;4.28;;;2.90;;
45909;SDS011;31622;55.416;37.840;2022-12-24T09:19:20;4.38;;;2.75;;
45909;SDS011;31622;55.416;37.840;2022-12-24T09:21:46;3.85;;;2.47;;
45909;SDS011;31622;55.416;37.840;2022-12-24T09:24:11;3.80;;;2.65;;
45909;SDS011;31622;55.416;37.840;2022-12-24T09:26:38;5.43;;;3.15;;
45909;SDS011;31622;55.416;37.840;2022-12-24T09:29:05;4.25;;;2.80;;
45909;SDS011;31622;55.416;37.840;2022-12-24T09:31:31;4.18;;;2.63;;
45909;SDS011;31622;55.416;37.840;2022-12-24T09:33:57;5.05;;;2.67;;
45909;SDS011;31622;55.416;37.840;2022-12-24T09:36:22;4.45;;;2.80;;
45909;SDS011;31622;55.416;37.840;2022-12-24T09:38:48;5.18;;;2.80;;
45909;SDS011;31622;55.416;37.840;2022-12-24T09:41:21;3.50;;;2.45;;
45909;SDS011;31622;55.416;37.840;2022-12-24T09:46:51;3.88;;;2.67;;
45909;SDS011;31622;55.416;37.840;2022-12-24T09:49:25;4.63;;;2.65;;
45909;SDS011;31622;55.416;37.840;2022-12-24T09:52:04;4.65;;;2.97;;
45909;SDS011;31622;55.416;37.840;2022-12-24T09:54:36;3.60;;;2.50;;
45909;SDS011;31622;55.416;37.840;2022-12-24T09:57:05;4.65;;;2.95;;
45909;SDS011;31622;55.416;37.840;2022-12-24T09:59:41;4.60;;;2.63;;
45909;SDS011;31622;55.416;37.840;2022-12-24T10:02:13;4.13;;;2.90;;
45909;SDS011;31622;55.416;37.840;2022-12-24T10:04:40;4.22;;;2.55;;
45909;SDS011;31622;55.416;37.840;2022-12-24T10:07:10;5.35;;;2.83;;
45909;SDS011;31622;55.416;37.840;2022-12-24T10:09:50;6.63;;;2.28;;
45909;SDS011;31622;55.416;37.840;2022-12-24T10:15:14;6.60;;;2.45;;
45909;SDS011;31622;55.416;37.840;2022-12-24T10:25:47;4.68;;;2.97;;
45909;SDS011;31622;55.416;37.840;2022-12-24T10:28:14;5.05;;;3.13;;
45909;SDS011;31622;55.416;37.840;2022-12-24T10:30:43;3.00;;;2.20;;
45909;SDS011;31622;55.416;37.840;2022-12-24T10:33:36;4.57;;;2.67;;
45909;SDS011;31622;55.416;37.840;2022-12-24T10:36:04;4.15;;;2.78;;
45909;SDS011;31622;55.416;37.840;2022-12-24T10:38:31;4.53;;;2.90;;
45909;SDS011;31622;55.416;37.840;2022-12-24T10:40:57;3.60;;;2.40;;
45909;SDS011;31622;55.416;37.840;2022-12-24T10:43:26;3.33;;;2.28;;
45909;SDS011;31622;55.416;37.840;2022-12-24T10:45:58;3.97;;;2.80;;
45909;SDS011;31622;55.416;37.840;2022-12-24T10:48:36;3.72;;;2.70;;
45909;SDS011;31622;55.416;37.840;2022-12-24T10:51:05;3.70;;;2.53;;
45909;SDS011;31622;55.416;37.840;2022-12-24T10:56:07;4.35;;;2.70;;
45909;SDS011;31622;55.416;37.840;2022-12-24T10:58:35;3.60;;;2.47;;
45909;SDS011;31622;55.416;37.840;2022-12-24T11:01:01;2.97;;;2.28;;
45909;SDS011;31622;55.416;37.840;2022-12-24T11:03:28;4.05;;;2.78;;
45909;SDS011;31622;55.416;37.840;2022-12-24T11:05:58;3.58;;;2.70;;
45909;SDS011;31622;55.416;37.840;2022-12-24T11:08:25;3.80;;;2.10;;
45909;SDS011;31622;55.416;37.840;2022-12-24T11:13:23;3.35;;;2.33;;
45909;SDS011;31622;55.416;37.840;2022-12-24T11:16:03;4.97;;;2.33;;
45909;SDS011;31622;55.416;37.840;2022-12-24T11:18:35;4.38;;;2.40;;
45909;SDS011;31622;55.416;37.840;2022-12-24T11:21:03;3.33;;;2.20;;
45909;SDS011;31622;55.416;37.840;2022-12-24T11:23:29;3.13;;;2.17;;
45909;SDS011;31622;55.416;37.840;2022-12-24T11:25:55;3.75;;;2.28;;
45909;SDS011;31622;55.416;37.840;2022-12-24T11:28:26;4.50;;;2.50;;
45909;SDS011;31622;55.416;37.840;2022-12-24T11:30:58;3.13;;;1.90;;
45909;SDS011;31622;55.416;37.840;2022-12-24T11:33:24;6.68;;;2.42;;
45909;SDS011;31622;55.416;37.840;2022-12-24T11:35:56;3.97;;;2.22;;
45909;SDS011;31622;55.416;37.840;2022-12-24T11:38:26;3.13;;;2.20;;
45909;SDS011;31622;55.416;37.840;2022-12-24T11:40:57;3.65;;;2.30;;
45909;SDS011;31622;55.416;37.840;2022-12-24T11:43:24;4.05;;;2.70;;
45909;SDS011;31622;55.416;37.840;2022-12-24T11:49:20;4.20;;;2.40;;
45909;SDS011;31622;55.416;37.840;2022-12-24T11:57:21;3.70;;;2.10;;
45909;SDS011;31622;55.416;37.840;2022-12-24T11:59:49;4.78;;;2.08;;
45909;SDS011;31622;55.416;37.840;2022-12-24T12:04:50;3.45;;;2.00;;
45909;SDS011;31622;55.416;37.840;2022-12-24T12:07:24;3.33;;;2.20;;
45909;SDS011;31622;55.416;37.840;2022-12-24T12:09:59;3.55;;;2.00;;
45909;SDS011;31622;55.416;37.840;2022-12-24T12:12:55;3.75;;;2.03;;
45909;SDS011;31622;55.416;37.840;2022-12-24T12:15:26;3.05;;;2.47;;
45909;SDS011;31622;55.416;37.840;2022-12-24T12:18:47;2.90;;;2.10;;
45909;SDS011;31622;55.416;37.840;2022-12-24T12:23:37;2.15;;;1.65;;
45909;SDS011;31622;55.416;37.840;2022-12-24T12:26:11;3.03;;;2.00;;
45909;SDS011;31622;55.416;37.840;2022-12-24T12:28:39;2.67;;;1.77;;
45909;SDS011;31622;55.416;37.840;2022-12-24T12:33:54;2.75;;;2.10;;
45909;SDS011;31622;55.416;37.840;2022-12-24T12:36:25;3.42;;;2.10;;
45909;SDS011;31622;55.416;37.840;2022-12-24T12:39:13;2.63;;;1.80;;
45909;SDS011;31622;55.416;37.840;2022-12-24T12:42:01;2.78;;;1.95;;
45909;SDS011;31622;55.416;37.840;2022-12-24T12:44:45;3.45;;;2.10;;
45909;SDS011;31622;55.416;37.840;2022-12-24T12:52:30;3.22;;;2.08;;
45909;SDS011;31622;55.416;37.840;2022-12-24T13:01:13;2.90;;;1.77;;
45909;SDS011;31622;55.416;37.840;2022-12-24T13:03:44;2.47;;;1.60;;
45909;SDS011;31622;55.416;37.840;2022-12-24T13:14:51;2.88;;;1.80;;
45909;SDS011;31622;55.416;37.840;2022-12-24T13:20:39;2.60;;;1.88;;
45909;SDS011;31622;55.416;37.840;2022-12-24T13:23:20;2.70;;;1.90;;
45909;SDS011;31622;55.416;37.840;2022-12-24T13:25:50;3.65;;;2.10;;
45909;SDS011;31622;55.416;37.840;2022-12-24T13:30:47;4.00;;;2.00;;
45909;SDS011;31622;55.416;37.840;2022-12-24T13:36:00;3.50;;;1.85;;
45909;SDS011;31622;55.416;37.840;2022-12-24T13:40:54;2.67;;;1.90;;
45909;SDS011;31622;55.416;37.840;2022-12-24T13:43:20;2.58;;;1.88;;
45909;SDS011;31622;55.416;37.840;2022-12-24T13:45:47;2.92;;;1.90;;
45909;SDS011;31622;55.416;37.840;2022-12-24T13:48:21;2.60;;;1.80;;
45909;SDS011;31622;55.416;37.840;2022-12-24T13:50:52;2.20;;;1.70;;
45909;SDS011;31622;55.416;37.840;2022-12-24T13:58:37;2.92;;;1.73;;
45909;SDS011;31622;55.416;37.840;2022-12-24T14:01:07;3.20;;;1.70;;
45909;SDS011;31622;55.416;37.840;2022-12-24T14:06:25;2.85;;;2.13;;
45909;SDS011;31622;55.416;37.840;2022-12-24T14:08:56;2.63;;;1.88;;
45909;SDS011;31622;55.416;37.840;2022-12-24T14:11:29;4.22;;;2.13;;
45909;SDS011;31622;55.416;37.840;2022-12-24T14:16:54;2.38;;;1.70;;
45909;SDS011;31622;55.416;37.840;2022-12-24T14:19:23;3.03;;;2.08;;
45909;SDS011;31622;55.416;37.840;2022-12-24T14:21:58;2.55;;;1.58;;
45909;SDS011;31622;55.416;37.840;2022-12-24T14:24:32;2.63;;;1.70;;
45909;SDS011;31622;55.416;37.840;2022-12-24T14:27:19;3.10;;;1.90;;
45909;SDS011;31622;55.416;37.840;2022-12-24T14:29:49;2.90;;;1.80;;
45909;SDS011;31622;55.416;37.840;2022-12-24T14:32:18;2.53;;;1.80;;
45909;SDS011;31622;55.416;37.840;2022-12-24T14:34:43;2.55;;;1.90;;
45909;SDS011;31622;55.416;37.840;2022-12-24T14:37:11;2.60;;;1.88;;
45909;SDS011;31622;55.416;37.840;2022-12-24T14:39:46;3.45;;;1.90;;
45909;SDS011;31622;55.416;37.840;2022-12-24T14:44:55;2.08;;;1.70;;
45909;SDS011;31622;55.416;37.840;2022-12-24T14:52:45;2.50;;;1.90;;
45909;SDS011;31622;55.416;37.840;2022-12-24T14:55:29;3.67;;;2.00;;
45909;SDS011;31622;55.416;37.840;2022-12-24T15:00:58;3.55;;;2.00;;
45909;SDS011;31622;55.416;37.840;2022-12-24T15:03:29;2.92;;;2.00;;
45909;SDS011;31622;55.416;37.840;2022-12-24T15:05:57;2.60;;;1.73;;
45909;SDS011;31622;55.416;37.840;2022-12-24T15:08:28;3.25;;;2.10;;
45909;SDS011;31622;55.416;37.840;2022-12-24T15:15:57;2.22;;;1.70;;
45909;SDS011;31622;55.416;37.840;2022-12-24T15:18:24;4.07;;;2.38;;
45909;SDS011;31622;55.416;37.840;2022-12-24T15:20:52;5.70;;;3.28;;
45909;SDS011;31622;55.416;37.840;2022-12-24T15:23:20;5.05;;;3.70;;
45909;SDS011;31622;55.416;37.840;2022-12-24T15:28:38;8.52;;;5.35;;
45909;SDS011;31622;55.416;37.840;2022-12-24T15:31:07;6.30;;;4.97;;
45909;SDS011;31622;55.416;37.840;2022-12-24T15:33:35;7.78;;;5.75;;
45909;SDS011;31622;55.416;37.840;2022-12-24T15:36:01;8.30;;;5.63;;
45909;SDS011;31622;55.416;37.840;2022-12-24T15:41:07;8.48;;;5.50;;
45909;SDS011;31622;55.416;37.840;2022-12-24T15:43:42;7.00;;;5.38;;
45909;SDS011;31622;55.416;37.840;2022-12-24T15:46:09;9.32;;;5.68;;
45909;SDS011;31622;55.416;37.840;2022-12-24T15:48:34;6.35;;;5.32;;
45909;SDS011;31622;55.416;37.840;2022-12-24T15:51:02;7.70;;;5.40;;
45909;SDS011;31622;55.416;37.840;2022-12-24T15:53:30;7.15;;;5.30;;
45909;SDS011;31622;55.416;37.840;2022-12-24T15:56:05;7.55;;;5.05;;
45909;SDS011;31622;55.416;37.840;2022-12-24T16:06:16;6.53;;;4.57;;
45909;SDS011;31622;55.416;37.840;2022-12-24T16:08:42;6.40;;;4.60;;
45909;SDS011;31622;55.416;37.840;2022-12-24T16:13:38;6.90;;;5.22;;
45909;SDS011;31622;55.416;37.840;2022-12-24T16:16:10;7.28;;;4.95;;
45909;SDS011;31622;55.416;37.840;2022-12-24T16:18:53;7.15;;;5.25;;
45909;SDS011;31622;55.416;37.840;2022-12-24T16:24:19;7.07;;;5.55;;
45909;SDS011;31622;55.416;37.840;2022-12-24T16:26:53;8.18;;;5.75;;
45909;SDS011;31622;55.416;37.840;2022-12-24T16:29:19;7.93;;;6.05;;
45909;SDS011;31622;55.416;37.840;2022-12-24T16:31:53;6.72;;;5.32;;
45909;SDS011;31622;55.416;37.840;2022-12-24T16:34:22;7.80;;;5.32;;
45909;SDS011;31622;55.416;37.840;2022-12-24T16:36:49;6.60;;;5.05;;
45909;SDS011;31622;55.416;37.840;2022-12-24T16:39:17;7.30;;;5.30;;
45909;SDS011;31622;55.416;37.840;2022-12-24T16:41:57;6.77;;;5.00;;
45909;SDS011;31622;55.416;37.840;2022-12-24T16:44:42;5.72;;;4.40;;
45909;SDS011;31622;55.416;37.840;2022-12-24T16:47:10;6.15;;;4.53;;
45909;SDS011;31622;55.416;37.840;2022-12-24T16:49:38;8.05;;;5.15;;
45909;SDS011;31622;55.416;37.840;2022-12-24T16:52:09;5.85;;;4.55;;
45909;SDS011;31622;55.416;37.840;2022-12-24T16:54:39;6.43;;;5.03;;
45909;SDS011;31622;55.416;37.840;2022-12-24T16:57:05;6.13;;;4.50;;
45909;SDS011;31622;55.416;37.840;2022-12-24T16:59:32;6.03;;;4.32;;
45909;SDS011;31622;55.416;37.840;2022-12-24T17:01:58;6.13;;;4.22;;
45909;SDS011;31622;55.416;37.840;2022-12-24T17:04:23;5.75;;;4.45;;
45909;SDS011;31622;55.416;37.840;2022-12-24T17:06:49;6.60;;;4.97;;
45909;SDS011;31622;55.416;37.840;2022-12-24T17:09:15;10.00;;;6.60;;